Time;durP1;ratioP1;P1;durP2;ratioP2;P2;SDS_P1;SDS_P2;PMS_P1;PMS_P2;Temp;Humidity;BMP_temperature;BMP_pressure;BME280_temperature;BME280_humidity;BME280_pressure;Samples;Min_cycle;Max_cycle;Signal;HPM_P1;HPM_P2
2021/09/10 00:01:15;;;;;;;10.70;9.70;;;20.40;99.90;;;;;;5054843;28;20687;-71
2021/09/10 00:03:40;;;;;;;11.80;9.97;;;20.40;99.90;;;;;;5056676;28;20189;-71
2021/09/10 00:06:06;;;;;;;10.87;9.77;;;20.50;99.90;;;;;;5057464;28;20171;-71
2021/09/10 00:08:31;;;;;;;12.00;10.90;;;20.50;99.90;;;;;;5057257;28;20170;-71
2021/09/10 00:10:57;;;;;;;10.53;9.53;;;20.60;99.90;;;;;;5057715;28;20213;-71
2021/09/10 00:13:22;;;;;;;13.33;9.93;;;20.60;99.90;;;;;;5056745;28;20166;-70
2021/09/10 00:15:48;;;;;;;10.90;9.80;;;20.60;99.90;;;;;;5056514;28;20167;-70
2021/09/10 00:18:13;;;;;;;11.63;10.53;;;20.70;99.90;;;;;;5056960;28;20181;-70
2021/09/10 00:20:39;;;;;;;11.97;10.93;;;20.70;99.90;;;;;;5047209;28;20198;-71
2021/09/10 00:23:04;;;;;;;11.40;10.30;;;20.70;99.90;;;;;;5036280;28;20191;-71
2021/09/10 00:25:30;;;;;;;11.90;10.70;;;20.60;99.90;;;;;;5036491;28;20644;-71
2021/09/10 00:27:55;;;;;;;11.30;10.20;;;20.50;99.90;;;;;;5036443;28;20632;-71
2021/09/10 00:30:21;;;;;;;13.07;11.67;;;20.50;99.90;;;;;;5036211;28;20252;-71
2021/09/10 00:32:46;;;;;;;12.93;10.53;;;20.40;99.90;;;;;;5036568;28;20221;-71
2021/09/10 00:35:12;;;;;;;12.43;11.17;;;20.40;99.90;;;;;;5036465;28;20167;-70
2021/09/10 00:37:38;;;;;;;12.67;11.37;;;20.40;99.90;;;;;;5036153;28;20258;-70
2021/09/10 00:40:05;;;;;;;11.50;10.37;;;20.40;99.90;;;;;;5036149;28;20171;-70
2021/09/10 00:42:31;;;;;;;12.60;11.40;;;20.30;99.90;;;;;;5052753;28;20588;-70
2021/09/10 00:44:57;;;;;;;11.67;10.57;;;20.30;99.90;;;;;;5034719;28;20414;-71
2021/09/10 00:47:23;;;;;;;11.83;10.63;;;20.30;99.90;;;;;;5038938;28;20843;-71
2021/09/10 00:49:49;;;;;;;11.73;10.27;;;20.30;99.90;;;;;;5035645;28;20543;-71
2021/09/10 00:52:15;;;;;;;11.43;9.53;;;20.30;99.90;;;;;;5035920;28;20433;-71
2021/09/10 00:54:41;;;;;;;10.83;9.60;;;20.40;99.90;;;;;;5036041;28;20179;-71
2021/09/10 00:57:07;;;;;;;9.80;8.87;;;20.40;99.90;;;;;;5036040;28;20414;-71
2021/09/10 00:59:33;;;;;;;10.63;9.73;;;20.50;99.90;;;;;;5049380;28;20444;-70
2021/09/10 01:01:59;;;;;;;10.30;9.13;;;20.60;99.90;;;;;;5055647;28;20425;-71
2021/09/10 01:04:26;;;;;;;10.23;8.90;;;20.60;99.90;;;;;;5055860;28;20178;-71
2021/09/10 01:06:54;;;;;;;8.80;8.10;;;20.60;99.90;;;;;;5055734;28;20413;-71
2021/09/10 01:09:21;;;;;;;8.67;7.97;;;20.70;99.90;;;;;;5055705;28;20463;-71
2021/09/10 01:11:49;;;;;;;9.30;8.60;;;20.70;99.90;;;;;;5055406;28;20521;-71
2021/09/10 01:14:16;;;;;;;11.60;10.30;;;20.70;99.90;;;;;;5055690;28;20459;-71
2021/09/10 01:16:42;;;;;;;9.00;8.00;;;20.70;99.90;;;;;;5059784;28;20443;-71
2021/09/10 01:19:08;;;;;;;10.00;9.00;;;20.70;99.90;;;;;;5050699;28;20422;-70
2021/09/10 01:21:33;;;;;;;8.80;8.10;;;20.70;99.90;;;;;;5040849;28;20254;-70
2021/09/10 01:23:59;;;;;;;9.70;8.70;;;20.80;99.90;;;;;;5040623;28;20258;-70
2021/09/10 01:26:24;;;;;;;11.07;8.63;;;20.80;99.90;;;;;;5038722;28;20182;-70
2021/09/10 01:28:50;;;;;;;9.40;8.60;;;20.80;99.90;;;;;;5036342;28;20171;-72
2021/09/10 01:31:16;;;;;;;9.17;8.37;;;20.80;99.90;;;;;;5036054;28;20215;-71
2021/09/10 01:33:41;;;;;;;9.30;8.40;;;20.80;99.90;;;;;;5036671;28;20190;-71
2021/09/10 01:36:08;;;;;;;10.10;9.10;;;20.80;99.90;;;;;;5035032;28;20414;-72
2021/09/10 01:38:34;;;;;;;9.90;8.37;;;20.80;99.90;;;;;;5037992;28;20163;-71
2021/09/10 01:41:00;;;;;;;10.27;9.33;;;20.90;99.90;;;;;;5049469;28;20512;-71
2021/09/10 01:43:26;;;;;;;9.30;8.40;;;20.90;99.90;;;;;;5035227;28;20462;-71
2021/09/10 01:45:51;;;;;;;8.90;8.20;;;20.90;99.90;;;;;;5039326;28;20193;-71
2021/09/10 01:48:17;;;;;;;10.17;9.27;;;20.90;99.90;;;;;;5035232;28;20266;-72
2021/09/10 01:50:42;;;;;;;9.70;8.80;;;20.90;99.90;;;;;;5035165;28;20610;-71
2021/09/10 01:53:08;;;;;;;8.97;8.20;;;20.80;99.90;;;;;;5035145;28;20167;-71
2021/09/10 01:55:35;;;;;;;9.13;8.27;;;20.80;99.90;;;;;;5035212;28;20166;-71
2021/09/10 01:58:00;;;;;;;8.93;8.10;;;20.80;99.90;;;;;;5033986;28;20262;-70
2021/09/10 02:00:27;;;;;;;10.13;9.13;;;20.80;99.90;;;;;;5035902;28;20848;-71
2021/09/10 02:02:52;;;;;;;11.00;8.40;;;20.80;99.90;;;;;;5035015;28;20187;-71
2021/09/10 02:05:18;;;;;;;9.83;8.83;;;20.80;99.90;;;;;;5035389;28;20430;-71
2021/09/10 02:07:43;;;;;;;9.00;8.13;;;20.70;99.90;;;;;;5040493;28;20205;-71
2021/09/10 02:10:12;;;;;;;9.23;8.43;;;20.80;99.90;;;;;;5039843;28;20281;-71
2021/09/10 02:12:38;;;;;;;8.90;8.00;;;20.70;99.90;;;;;;5035869;28;20554;-71
2021/09/10 02:15:06;;;;;;;9.50;8.60;;;20.70;99.90;;;;;;5047047;28;20429;-71
2021/09/10 02:17:31;;;;;;;9.87;9.07;;;20.60;99.90;;;;;;5041519;28;20437;-71
2021/09/10 02:19:57;;;;;;;10.30;9.30;;;20.50;99.90;;;;;;5036368;28;20423;-71
2021/09/10 02:22:23;;;;;;;10.00;9.10;;;20.40;99.90;;;;;;5033244;28;20201;-71
2021/09/10 02:24:48;;;;;;;10.43;9.40;;;20.30;99.90;;;;;;5051707;28;20178;-71
2021/09/10 02:27:15;;;;;;;11.23;9.43;;;20.30;99.90;;;;;;5053050;28;20615;-71
2021/09/10 02:29:41;;;;;;;9.87;9.10;;;20.20;99.90;;;;;;5053865;28;20818;-71
2021/09/10 02:32:07;;;;;;;10.07;9.17;;;20.10;99.90;;;;;;5053540;28;20549;-71
2021/09/10 02:34:32;;;;;;;13.00;9.60;;;20.00;99.90;;;;;;5054043;28;20174;-71
2021/09/10 02:36:58;;;;;;;10.60;9.60;;;20.00;99.90;;;;;;5054546;28;20174;-70
2021/09/10 02:39:23;;;;;;;11.97;10.20;;;20.00;99.90;;;;;;5053944;28;20177;-71
2021/09/10 02:41:49;;;;;;;11.77;10.60;;;19.90;99.90;;;;;;5036734;28;20211;-71
2021/09/10 02:44:14;;;;;;;10.50;9.60;;;19.90;99.90;;;;;;5050241;28;20604;-71
2021/09/10 02:46:40;;;;;;;10.93;9.93;;;19.80;99.90;;;;;;5053879;28;20186;-72
2021/09/10 02:49:06;;;;;;;10.97;9.87;;;19.70;99.90;;;;;;5053618;28;20206;-72
2021/09/10 02:51:32;;;;;;;10.47;9.57;;;19.70;99.90;;;;;;5053348;28;20691;-71
2021/09/10 02:53:57;;;;;;;12.33;10.80;;;19.60;99.90;;;;;;5054056;28;20437;-72
2021/09/10 02:56:23;;;;;;;11.53;10.53;;;19.60;99.90;;;;;;5053676;28;20196;-71
2021/09/10 02:58:49;;;;;;;11.60;10.50;;;19.60;99.90;;;;;;5043139;28;20274;-72
2021/09/10 03:01:15;;;;;;;11.53;10.27;;;19.50;99.90;;;;;;5034043;28;20195;-71
2021/09/10 03:03:40;;;;;;;10.40;9.50;;;19.50;99.90;;;;;;5033517;28;20500;-72
2021/09/10 03:06:06;;;;;;;11.57;10.57;;;19.40;99.90;;;;;;5033623;28;20266;-71
2021/09/10 03:08:31;;;;;;;11.47;10.37;;;19.40;99.90;;;;;;5033748;28;20593;-72
2021/09/10 03:10:57;;;;;;;12.23;10.97;;;19.40;99.90;;;;;;5033790;28;20259;-71
2021/09/10 03:13:23;;;;;;;11.97;10.77;;;19.40;99.90;;;;;;5034511;28;20539;-71
2021/09/10 03:15:48;;;;;;;12.07;10.67;;;19.30;99.90;;;;;;5033766;28;20178;-71
2021/09/10 03:18:14;;;;;;;15.10;12.33;;;19.30;99.90;;;;;;5033643;28;20178;-72
2021/09/10 03:20:39;;;;;;;13.97;11.83;;;19.30;99.90;;;;;;5034688;28;20264;-72
2021/09/10 03:23:05;;;;;;;11.90;10.70;;;19.20;99.90;;;;;;5032935;28;20183;-72
2021/09/10 03:25:31;;;;;;;12.37;11.07;;;19.20;99.90;;;;;;5033837;28;20551;-72
2021/09/10 03:27:56;;;;;;;12.40;11.20;;;19.20;99.90;;;;;;5034516;28;20171;-71
2021/09/10 03:30:22;;;;;;;12.73;11.50;;;19.20;99.90;;;;;;5034668;28;20213;-72
2021/09/10 03:32:48;;;;;;;12.67;10.47;;;19.20;99.90;;;;;;5037152;28;20181;-71
2021/09/10 03:35:14;;;;;;;13.17;11.40;;;19.20;99.90;;;;;;5040001;28;20629;-71
2021/09/10 03:37:39;;;;;;;12.30;11.20;;;19.20;99.90;;;;;;5039399;28;20459;-71
2021/09/10 03:40:06;;;;;;;11.70;10.50;;;19.20;99.90;;;;;;5046547;28;20543;-71
2021/09/10 03:42:32;;;;;;;12.17;10.93;;;19.20;99.90;;;;;;5057654;28;20174;-72
2021/09/10 03:44:57;;;;;;;13.60;12.43;;;19.10;99.90;;;;;;5057491;28;20400;-71
2021/09/10 03:47:23;;;;;;;12.80;11.70;;;19.10;99.90;;;;;;5057051;28;20170;-72
2021/09/10 03:49:48;;;;;;;13.40;11.27;;;19.10;99.90;;;;;;5057085;28;20186;-72
2021/09/10 03:52:14;;;;;;;13.70;12.40;;;19.10;99.90;;;;;;5057295;28;20193;-72
2021/09/10 03:54:39;;;;;;;13.37;12.13;;;19.10;99.90;;;;;;5057515;28;20170;-72
2021/09/10 03:57:06;;;;;;;16.43;12.00;;;19.10;99.90;;;;;;5057237;28;20182;-72
2021/09/10 03:59:32;;;;;;;12.77;11.57;;;19.10;99.90;;;;;;5053126;28;20193;-72
2021/09/10 04:01:57;;;;;;;13.30;12.10;;;19.10;99.90;;;;;;5055196;28;20444;-72
2021/09/10 04:04:23;;;;;;;13.03;11.40;;;19.10;99.90;;;;;;5044996;28;20201;-72
2021/09/10 04:06:48;;;;;;;13.30;12.00;;;19.10;99.90;;;;;;5036897;28;20179;-72
2021/09/10 04:09:14;;;;;;;13.70;12.30;;;19.10;99.90;;;;;;5036601;28;20167;-72
2021/09/10 04:11:39;;;;;;;13.67;11.83;;;19.10;99.90;;;;;;5037635;28;20237;-72
2021/09/10 04:14:05;;;;;;;12.00;11.00;;;19.10;99.90;;;;;;5037449;28;20174;-72
2021/09/10 04:16:33;;;;;;;13.07;11.77;;;19.10;99.90;;;;;;5036991;28;20261;-72
2021/09/10 04:18:59;;;;;;;12.80;11.60;;;19.10;99.90;;;;;;5036425;28;20166;-72
2021/09/10 04:21:24;;;;;;;13.00;11.80;;;19.20;99.90;;;;;;5037144;28;20973;-71
2021/09/10 04:23:50;;;;;;;13.13;11.83;;;19.20;99.90;;;;;;5039999;28;20198;-72
2021/09/10 04:26:15;;;;;;;12.53;11.43;;;19.20;99.90;;;;;;5037857;28;20179;-72
2021/09/10 04:28:46;;;;;;;12.60;11.30;;;19.20;99.90;;;;;;5043491;28;20183;-72
2021/09/10 04:31:11;;;;;;;12.67;11.37;;;19.10;99.90;;;;;;5037321;28;20234;-72
2021/09/10 04:33:37;;;;;;;12.27;11.10;;;19.10;99.90;;;;;;5029550;28;20497;-70
2021/09/10 04:36:03;;;;;;;13.97;12.00;;;19.10;99.90;;;;;;5036830;28;20206;-70
2021/09/10 04:38:28;;;;;;;13.17;11.20;;;19.00;99.90;;;;;;5033867;28;20278;-71
2021/09/10 04:40:54;;;;;;;13.90;12.37;;;19.00;99.90;;;;;;5030118;28;20277;-71
2021/09/10 04:43:19;;;;;;;13.33;11.70;;;18.90;99.90;;;;;;5037003;28;20571;-71
2021/09/10 04:45:45;;;;;;;14.67;13.20;;;18.90;99.90;;;;;;5031664;28;20207;-72
2021/09/10 04:48:10;;;;;;;14.23;12.93;;;18.80;99.90;;;;;;5031770;28;20226;-70
2021/09/10 04:50:36;;;;;;;13.03;11.90;;;18.90;99.90;;;;;;5034250;28;20220;-71
2021/09/10 04:53:02;;;;;;;13.50;12.20;;;18.90;99.90;;;;;;5037282;28;20207;-72
2021/09/10 04:55:27;;;;;;;15.00;13.60;;;18.90;99.90;;;;;;5032837;28;20207;-69
2021/09/10 04:57:53;;;;;;;15.43;13.90;;;18.80;99.90;;;;;;5041372;28;20671;-71
2021/09/10 05:00:18;;;;;;;14.20;12.80;;;18.90;99.90;;;;;;5047026;28;20209;-71
2021/09/10 05:02:43;;;;;;;15.33;13.80;;;18.90;99.90;;;;;;5050258;28;20218;-71
2021/09/10 05:05:10;;;;;;;15.93;14.33;;;18.90;99.90;;;;;;5049994;28;20438;-71
2021/09/10 05:07:36;;;;;;;13.97;12.77;;;19.00;99.90;;;;;;5048885;28;20210;-71
2021/09/10 05:10:02;;;;;;;14.63;13.23;;;18.90;99.90;;;;;;5050701;28;20443;-72
2021/09/10 05:12:27;;;;;;;14.30;12.90;;;19.00;99.90;;;;;;5051250;28;20205;-70
2021/09/10 05:14:53;;;;;;;14.10;12.80;;;19.00;99.90;;;;;;5048447;28;20219;-71
2021/09/10 05:17:19;;;;;;;12.87;11.67;;;19.00;99.90;;;;;;5050303;28;21042;-72
2021/09/10 05:19:45;;;;;;;14.80;13.30;;;19.00;99.90;;;;;;5049541;28;20221;-71
2021/09/10 05:22:11;;;;;;;15.00;13.50;;;19.00;99.90;;;;;;5069270;28;20436;-73
2021/09/10 05:24:39;;;;;;;13.33;12.00;;;19.00;99.90;;;;;;5065202;28;20458;-70
2021/09/10 05:27:04;;;;;;;13.63;12.17;;;19.00;99.90;;;;;;5058457;28;20225;-72
2021/09/10 05:29:30;;;;;;;13.10;11.53;;;19.00;99.90;;;;;;5010870;28;20893;-71
2021/09/10 05:31:56;;;;;;;12.37;11.20;;;19.10;99.90;;;;;;5064524;28;20612;-72
2021/09/10 05:34:21;;;;;;;14.23;12.73;;;19.10;99.90;;;;;;5062606;28;20395;-71
2021/09/10 05:36:47;;;;;;;19.10;12.13;;;19.10;99.90;;;;;;5058280;28;20596;-72
2021/09/10 05:39:12;;;;;;;16.67;11.57;;;19.20;99.90;;;;;;5069107;28;20218;-70
2021/09/10 05:41:38;;;;;;;11.30;10.23;;;19.20;99.90;;;;;;5061099;28;20233;-72
2021/09/10 05:44:03;;;;;;;13.00;11.83;;;19.20;99.90;;;;;;5044149;28;20246;-70
2021/09/10 05:46:29;;;;;;;12.33;11.13;;;19.30;99.90;;;;;;5051281;28;20214;-70
2021/09/10 05:48:55;;;;;;;10.67;9.67;;;19.30;99.90;;;;;;5045811;28;20225;-71
2021/09/10 05:51:20;;;;;;;11.33;10.27;;;19.40;99.90;;;;;;5053042;28;20779;-70
2021/09/10 05:53:46;;;;;;;11.27;10.27;;;19.40;99.90;;;;;;5060198;28;20166;-70
2021/09/10 05:56:11;;;;;;;11.50;10.40;;;19.50;99.90;;;;;;5076996;28;20178;-70
2021/09/10 05:58:37;;;;;;;12.77;11.40;;;19.50;99.90;;;;;;5062224;28;20209;-72
2021/09/10 06:01:02;;;;;;;12.43;11.23;;;19.60;99.90;;;;;;5056230;28;20254;-70
2021/09/10 06:03:28;;;;;;;11.23;10.20;;;19.60;99.90;;;;;;5060636;28;20185;-72
2021/09/10 06:05:53;;;;;;;12.30;11.20;;;19.60;99.90;;;;;;5061627;28;20291;-72
2021/09/10 06:08:19;;;;;;;10.90;9.80;;;19.60;99.90;;;;;;5054182;28;20213;-70
2021/09/10 06:10:47;;;;;;;11.33;9.23;;;19.60;99.90;;;;;;5054525;28;20233;-72
2021/09/10 06:13:13;;;;;;;10.70;9.80;;;19.70;99.90;;;;;;5056041;28;20173;-72
2021/09/10 06:15:39;;;;;;;12.07;10.97;;;19.70;99.90;;;;;;5054883;28;20401;-72
2021/09/10 06:18:04;;;;;;;11.93;10.90;;;19.80;99.90;;;;;;5055167;28;20170;-72
2021/09/10 06:20:30;;;;;;;13.80;9.83;;;19.80;99.90;;;;;;5053090;28;20246;-72
2021/09/10 06:22:55;;;;;;;11.40;9.77;;;19.80;99.90;;;;;;5054998;28;20228;-72
2021/09/10 06:25:24;;;;;;;9.97;8.50;;;19.90;99.90;;;;;;5054650;28;20166;-71
2021/09/10 06:27:50;;;;;;;9.57;8.67;;;19.90;99.90;;;;;;5057516;28;20236;-72
2021/09/10 06:30:16;;;;;;;12.40;9.60;;;19.90;99.90;;;;;;5054476;28;20465;-71
2021/09/10 06:32:41;;;;;;;9.77;8.83;;;20.00;99.90;;;;;;5034657;28;20991;-71
2021/09/10 06:35:07;;;;;;;8.97;8.03;;;20.10;99.90;;;;;;5035256;28;20540;-71
2021/09/10 06:37:33;;;;;;;9.00;8.17;;;20.10;99.90;;;;;;5034752;28;20166;-71
2021/09/10 06:39:58;;;;;;;9.30;8.50;;;20.10;99.90;;;;;;5033824;28;20183;-70
2021/09/10 06:42:23;;;;;;;8.37;7.57;;;20.20;99.90;;;;;;5035454;28;20173;-70
2021/09/10 06:44:51;;;;;;;8.33;7.50;;;20.20;99.90;;;;;;5043393;28;20175;-70
2021/09/10 06:47:18;;;;;;;8.37;7.57;;;20.30;99.90;;;;;;5043040;28;20201;-70
2021/09/10 06:49:44;;;;;;;8.00;7.30;;;20.30;99.90;;;;;;5048251;28;20825;-70
2021/09/10 06:52:10;;;;;;;7.37;6.77;;;20.40;99.90;;;;;;5053942;28;20445;-70
2021/09/10 06:54:35;;;;;;;8.00;7.30;;;20.40;99.90;;;;;;5053020;28;20431;-71
2021/09/10 06:57:01;;;;;;;7.57;6.80;;;20.40;99.90;;;;;;5054164;28;20249;-70
2021/09/10 06:59:26;;;;;;;8.20;7.50;;;20.40;99.90;;;;;;5053994;28;20249;-71
2021/09/10 07:01:52;;;;;;;8.87;7.77;;;20.40;99.90;;;;;;5054818;28;20655;-71
2021/09/10 07:04:18;;;;;;;8.27;7.47;;;20.50;99.90;;;;;;5052554;28;20530;-71
2021/09/10 07:06:43;;;;;;;7.57;6.87;;;20.50;99.90;;;;;;5061531;28;20704;-71
2021/09/10 07:09:09;;;;;;;8.00;7.33;;;20.50;99.90;;;;;;5066570;28;20178;-71
2021/09/10 07:11:35;;;;;;;7.77;7.07;;;20.60;99.90;;;;;;5067130;28;20204;-71
2021/09/10 07:14:01;;;;;;;7.47;6.77;;;20.60;99.90;;;;;;5064243;28;20189;-71
2021/09/10 07:16:27;;;;;;;8.37;7.53;;;20.60;99.90;;;;;;5064669;28;20983;-70
2021/09/10 07:18:53;;;;;;;8.17;7.37;;;20.60;99.90;;;;;;5064980;28;20431;-71
2021/09/10 07:21:18;;;;;;;7.53;6.80;;;20.70;99.90;;;;;;5065874;28;20251;-71
2021/09/10 07:23:44;;;;;;;8.33;7.67;;;20.70;99.90;;;;;;5066948;28;20258;-70
2021/09/10 07:26:10;;;;;;;8.53;7.83;;;20.80;99.90;;;;;;5062371;28;20209;-72
2021/09/10 07:28:36;;;;;;;7.83;7.13;;;20.80;99.90;;;;;;5066519;28;20193;-70
2021/09/10 07:31:04;;;;;;;8.10;7.30;;;20.90;99.90;;;;;;5066148;28;20551;-70
2021/09/10 07:33:29;;;;;;;8.17;7.47;;;21.00;99.90;;;;;;5066485;28;20419;-70
2021/09/10 07:35:55;;;;;;;7.10;6.40;;;21.10;99.90;;;;;;5060808;28;20792;-70
2021/09/10 07:38:21;;;;;;;7.77;6.83;;;21.20;99.90;;;;;;5061995;28;20202;-72
2021/09/10 07:40:47;;;;;;;8.87;7.00;;;21.20;99.90;;;;;;5065187;28;20193;-71
2021/09/10 07:43:12;;;;;;;7.60;6.90;;;21.30;99.90;;;;;;5066117;28;20188;-71
2021/09/10 07:45:38;;;;;;;7.73;6.90;;;21.40;99.90;;;;;;5064805;28;20806;-73
2021/09/10 07:48:04;;;;;;;7.07;6.37;;;21.40;99.90;;;;;;5061948;28;20268;-72
2021/09/10 07:50:30;;;;;;;6.97;6.37;;;21.40;99.90;;;;;;5062691;28;20371;-70
2021/09/10 07:52:55;;;;;;;6.60;6.00;;;21.40;99.90;;;;;;5065750;28;20956;-70
2021/09/10 07:55:21;;;;;;;6.40;5.73;;;21.50;99.90;;;;;;5065342;28;20650;-70
2021/09/10 07:57:46;;;;;;;6.43;5.93;;;21.60;99.90;;;;;;5065667;28;20554;-70
2021/09/10 08:00:12;;;;;;;8.13;7.40;;;21.70;99.90;;;;;;5064029;28;20205;-71
2021/09/10 08:02:38;;;;;;;6.70;6.17;;;21.80;99.90;;;;;;5065580;28;20166;-73
2021/09/10 08:05:04;;;;;;;7.30;6.60;;;21.90;99.90;;;;;;5065908;28;20185;-72
2021/09/10 08:07:30;;;;;;;6.17;5.63;;;22.10;99.90;;;;;;5064293;28;20204;-71
2021/09/10 08:09:56;;;;;;;5.63;5.13;;;22.10;99.90;;;;;;5063520;28;20730;-70
2021/09/10 08:12:21;;;;;;;5.77;5.27;;;22.20;99.90;;;;;;5064944;28;20549;-72
2021/09/10 08:14:47;;;;;;;6.73;5.83;;;22.30;99.90;;;;;;5065707;28;20170;-72
2021/09/10 08:17:13;;;;;;;6.70;5.73;;;22.40;99.90;;;;;;5065426;28;20285;-71
2021/09/10 08:19:38;;;;;;;5.67;5.27;;;22.50;99.90;;;;;;5064671;28;20181;-71
2021/09/10 08:22:04;;;;;;;5.80;5.30;;;22.50;99.90;;;;;;5062576;28;20198;-72
2021/09/10 08:24:30;;;;;;;5.57;4.63;;;22.60;99.90;;;;;;5065521;28;20194;-71
2021/09/10 08:26:55;;;;;;;6.13;5.63;;;22.60;99.90;;;;;;5066350;28;20613;-70
2021/09/10 08:29:21;;;;;;;5.37;4.90;;;22.70;99.90;;;;;;5068441;28;20178;-71
2021/09/10 08:31:46;;;;;;;5.13;4.67;;;22.70;99.90;;;;;;5067833;28;20209;-71
2021/09/10 08:34:12;;;;;;;4.93;4.60;;;22.70;99.90;;;;;;5068482;28;20229;-71
2021/09/10 08:36:37;;;;;;;6.70;5.37;;;22.80;99.90;;;;;;5068290;28;20226;-71
2021/09/10 08:39:04;;;;;;;5.57;4.97;;;22.90;99.90;;;;;;5066753;28;20598;-71
2021/09/10 08:41:33;;;;;;;4.77;4.37;;;23.00;99.90;;;;;;5079443;28;20209;-71
2021/09/10 08:44:03;;;;;;;6.33;4.60;;;23.00;99.90;;;;;;5079810;28;20416;-71
2021/09/10 08:46:29;;;;;;;5.30;4.67;;;23.10;99.90;;;;;;5071785;28;20431;-70
2021/09/10 08:48:55;;;;;;;4.27;3.97;;;23.20;99.90;;;;;;5084618;28;20419;-70
2021/09/10 08:51:20;;;;;;;4.73;4.27;;;23.20;99.90;;;;;;5081506;28;20332;-71
2021/09/10 08:53:46;;;;;;;5.20;4.40;;;23.10;99.90;;;;;;5067483;28;20177;-71
2021/09/10 08:56:12;;;;;;;3.50;3.20;;;23.00;99.90;;;;;;5065733;28;20631;-71
2021/09/10 08:58:37;;;;;;;7.13;5.30;;;23.10;99.90;;;;;;5064716;28;20178;-71
2021/09/10 09:01:03;;;;;;;5.47;4.83;;;23.00;99.90;;;;;;5063948;28;20581;-71
2021/09/10 09:03:30;;;;;;;5.70;5.07;;;23.00;99.90;;;;;;5064962;28;20235;-73
2021/09/10 09:05:57;;;;;;;4.90;4.40;;;23.10;99.90;;;;;;5064017;28;20227;-72
2021/09/10 09:08:23;;;;;;;4.27;3.87;;;23.20;99.90;;;;;;5061809;28;20472;-71
2021/09/10 09:11:05;;;;;;;4.83;4.37;;;23.30;99.90;;;;;;5061871;28;20456;-71
2021/09/10 09:13:40;;;;;;;4.83;4.33;;;23.20;99.90;;;;;;5061156;28;20423;-70
2021/09/10 09:16:23;;;;;;;6.47;4.53;;;23.20;99.90;;;;;;5060628;28;20416;-71
2021/09/10 09:19:01;;;;;;;5.50;5.00;;;23.40;99.90;;;;;;5062895;28;20418;-72
2021/09/10 09:21:38;;;;;;;5.40;4.93;;;23.70;99.90;;;;;;5061820;28;20435;-71
2021/09/10 09:24:23;;;;;;;5.20;4.70;;;23.70;99.90;;;;;;5062466;28;20416;-72
2021/09/10 09:26:52;;;;;;;6.30;4.50;;;23.90;99.90;;;;;;5064488;28;20473;-71
2021/09/10 09:29:22;;;;;;;5.20;4.50;;;24.10;99.90;;;;;;5064013;28;20769;-71
2021/09/10 09:32:01;;;;;;;5.43;4.90;;;24.10;99.90;;;;;;5070728;28;20812;-71
2021/09/10 09:34:53;;;;;;;7.97;4.50;;;24.10;99.90;;;;;;5071508;28;20420;-71
2021/09/10 09:37:24;;;;;;;8.37;4.87;;;24.00;99.90;;;;;;5067819;28;20432;-74
2021/09/10 09:39:53;;;;;;;4.70;4.30;;;24.20;99.90;;;;;;5071621;28;20415;-72
2021/09/10 09:42:33;;;;;;;7.10;6.50;;;24.20;99.90;;;;;;5071917;28;20416;-72
2021/09/10 09:45:14;;;;;;;6.53;5.97;;;24.30;99.90;;;;;;5072550;28;20888;-72
2021/09/10 09:47:41;;;;;;;5.90;5.23;;;24.40;99.90;;;;;;5072110;28;20944;-72
2021/09/10 09:50:11;;;;;;;6.63;6.03;;;24.50;99.90;;;;;;5068232;28;20512;-72
2021/09/10 09:52:37;;;;;;;6.03;5.53;;;24.70;99.90;;;;;;5063684;28;20419;-71
2021/09/10 09:55:05;;;;;;;9.00;8.20;;;24.70;99.90;;;;;;5061628;28;20424;-73
2021/09/10 09:57:31;;;;;;;8.17;7.50;;;24.70;99.90;;;;;;5061562;28;20574;-72
2021/09/10 09:59:57;;;;;;;7.77;7.07;;;24.70;99.90;;;;;;5062740;28;20420;-72
2021/09/10 10:02:23;;;;;;;8.87;8.07;;;24.50;99.90;;;;;;5062993;28;20443;-73
2021/09/10 10:04:49;;;;;;;7.90;7.20;;;24.30;99.90;;;;;;5060442;28;20219;-72
2021/09/10 10:07:17;;;;;;;7.40;6.80;;;24.20;99.90;;;;;;5062723;28;20416;-72
2021/09/10 10:09:44;;;;;;;8.83;8.00;;;24.00;99.90;;;;;;5062746;28;20554;-71
2021/09/10 10:12:11;;;;;;;7.87;7.17;;;23.90;99.90;;;;;;5062415;28;20463;-71
2021/09/10 10:14:39;;;;;;;8.50;7.70;;;23.80;99.90;;;;;;5062285;28;20419;-71
2021/09/10 10:17:25;;;;;;;7.70;7.00;;;23.70;99.90;;;;;;5062943;28;21004;-72
2021/09/10 10:19:51;;;;;;;7.47;6.77;;;23.80;99.90;;;;;;5051018;28;20423;-72
2021/09/10 10:22:32;;;;;;;7.10;6.60;;;23.80;99.90;;;;;;5063053;28;20407;-72
2021/09/10 10:24:58;;;;;;;7.00;6.40;;;24.00;99.90;;;;;;5055512;28;20440;-71
2021/09/10 10:27:36;;;;;;;7.60;6.90;;;24.10;99.90;;;;;;5058072;28;20473;-71
2021/09/10 10:30:29;;;;;;;7.87;6.90;;;24.20;99.90;;;;;;5058806;28;20476;-71
2021/09/10 10:32:55;;;;;;;7.40;6.67;;;24.30;99.90;;;;;;5058228;28;20463;-72
2021/09/10 10:35:39;;;;;;;7.40;6.70;;;24.30;99.90;;;;;;5059372;28;20414;-72
2021/09/10 10:38:07;;;;;;;7.13;5.80;;;24.30;99.90;;;;;;5058466;28;20574;-73
2021/09/10 10:40:47;;;;;;;5.10;4.70;;;24.20;99.90;;;;;;5059230;28;20448;-72
2021/09/10 10:43:22;;;;;;;5.50;4.80;;;24.20;99.90;;;;;;5061298;28;20459;-72
2021/09/10 10:45:56;;;;;;;5.00;4.60;;;24.10;99.90;;;;;;5059567;28;20447;-72
2021/09/10 10:48:44;;;;;;;4.63;4.23;;;24.00;99.90;;;;;;5059883;28;20447;-72
2021/09/10 10:51:21;;;;;;;4.90;4.50;;;24.00;99.90;;;;;;5062604;28;20475;-72
2021/09/10 10:53:48;;;;;;;6.33;5.70;;;24.10;99.90;;;;;;5060796;28;20436;-72
2021/09/10 10:56:26;;;;;;;7.00;5.50;;;24.10;99.90;;;;;;5061023;28;20844;-73
2021/09/10 11:02:16;;;;;;;7.30;6.67;;;23.90;99.90;;;;;;5062016;28;20442;-72
2021/09/10 11:04:44;;;;;;;6.73;6.23;;;23.90;99.90;;;;;;5062173;28;20416;-72
2021/09/10 11:07:10;;;;;;;6.97;5.97;;;23.80;99.90;;;;;;5064018;28;20519;-73
2021/09/10 11:09:35;;;;;;;7.73;6.70;;;23.70;99.90;;;;;;5060740;28;20550;-74
2021/09/10 11:12:01;;;;;;;7.60;6.43;;;23.60;99.90;;;;;;5063398;28;20213;-72
2021/09/10 11:14:34;;;;;;;6.40;5.80;;;23.50;99.90;;;;;;5062127;28;20183;-74
2021/09/10 11:17:12;;;;;;;6.90;6.20;;;23.40;99.90;;;;;;5062204;28;20188;-71
2021/09/10 11:19:43;;;;;;;8.07;6.60;;;23.40;99.90;;;;;;5062583;28;20399;-72
2021/09/10 11:22:09;;;;;;;6.47;5.87;;;23.30;99.90;;;;;;5062045;28;20432;-72
2021/09/10 11:24:34;;;;;;;8.97;7.13;;;23.10;99.90;;;;;;5061113;28;20940;-73
2021/09/10 11:27:00;;;;;;;6.83;6.07;;;23.00;99.90;;;;;;5060260;28;20685;-72
2021/09/10 11:29:37;;;;;;;7.70;6.77;;;23.00;99.90;;;;;;5060963;28;20185;-73
2021/09/10 11:32:23;;;;;;;7.50;5.73;;;22.90;99.90;;;;;;5062677;28;20221;-73
2021/09/10 11:34:49;;;;;;;5.73;5.27;;;23.00;99.90;;;;;;5063255;28;20420;-73
2021/09/10 11:37:24;;;;;;;7.10;5.43;;;23.00;99.90;;;;;;5061173;28;20420;-73
2021/09/10 11:39:50;;;;;;;6.53;6.00;;;22.90;99.90;;;;;;5062246;28;20195;-72
2021/09/10 11:42:37;;;;;;;5.47;5.00;;;23.00;99.90;;;;;;5061855;28;20455;-72
2021/09/10 11:45:10;;;;;;;5.80;5.17;;;23.10;99.90;;;;;;5061084;28;20709;-72
2021/09/10 11:47:37;;;;;;;5.90;4.93;;;23.20;99.90;;;;;;5060478;28;20447;-72
2021/09/10 11:50:09;;;;;;;4.50;4.20;;;23.40;99.90;;;;;;5061752;28;20792;-73
2021/09/10 11:52:39;;;;;;;4.37;4.07;;;23.40;99.90;;;;;;5062431;28;20412;-72
2021/09/10 11:55:25;;;;;;;8.87;5.10;;;23.40;99.90;;;;;;5065560;28;20845;-72
2021/09/10 11:58:11;;;;;;;4.93;4.53;;;23.40;99.90;;;;;;5083015;28;20454;-72
2021/09/10 12:00:36;;;;;;;5.00;4.37;;;23.40;99.90;;;;;;5074787;28;20432;-71
2021/09/10 12:03:02;;;;;;;5.07;4.40;;;23.50;99.90;;;;;;5078274;28;20443;-72
2021/09/10 12:05:28;;;;;;;4.63;4.20;;;23.50;99.90;;;;;;5085422;28;20273;-72
2021/09/10 12:07:54;;;;;;;6.40;4.90;;;23.40;99.90;;;;;;5079563;28;20433;-72
2021/09/10 12:10:33;;;;;;;5.70;4.53;;;23.40;99.90;;;;;;5065449;28;20197;-72
2021/09/10 12:13:13;;;;;;;4.40;4.00;;;23.60;99.90;;;;;;5065320;28;20174;-72
2021/09/10 12:15:41;;;;;;;4.10;3.80;;;23.80;99.90;;;;;;5065343;28;20414;-72
2021/09/10 12:18:15;;;;;;;4.00;3.67;;;23.70;99.90;;;;;;5064448;28;20489;-72
2021/09/10 12:20:42;;;;;;;4.03;3.63;;;23.70;99.90;;;;;;5063779;28;20444;-72
2021/09/10 12:23:18;;;;;;;5.03;3.47;;;23.90;99.90;;;;;;5064554;28;20408;-73
2021/09/10 12:26:05;;;;;;;3.83;3.47;;;23.90;99.90;;;;;;5065090;28;20423;-73
2021/09/10 12:28:33;;;;;;;5.13;4.20;;;24.00;99.90;;;;;;5063902;28;20440;-72
2021/09/10 12:31:05;;;;;;;4.17;3.87;;;23.90;99.90;;;;;;5064972;28;20987;-72
2021/09/10 12:33:30;;;;;;;3.43;3.13;;;24.00;99.90;;;;;;5063741;28;20524;-73
2021/09/10 12:35:59;;;;;;;2.97;2.77;;;24.00;99.90;;;;;;5063248;28;20511;-73
2021/09/10 12:38:30;;;;;;;3.37;3.07;;;24.00;99.90;;;;;;5061795;28;20423;-73
2021/09/10 12:40:56;;;;;;;3.80;3.50;;;24.20;99.90;;;;;;5062096;28;20490;-71
2021/09/10 12:43:23;;;;;;;3.43;3.13;;;24.20;99.90;;;;;;5062061;28;20456;-73